createdAt,value
2019-03-29T00:01:19.701Z,12.63
2019-03-29T00:03:48.553Z,12.82
2019-03-29T00:06:17.407Z,13.08
2019-03-29T00:08:52.961Z,12.90
2019-03-29T00:11:21.889Z,13.93
2019-03-29T00:13:50.677Z,13.45
2019-03-29T00:16:33.486Z,13.62
2019-03-29T00:19:02.510Z,12.63
2019-03-29T00:21:39.106Z,12.40
2019-03-29T00:24:08.342Z,12.98
2019-03-29T00:26:37.197Z,12.53
2019-03-29T00:29:12.669Z,13.35
2019-03-29T00:31:41.542Z,12.18
2019-03-29T00:34:17.356Z,12.43
2019-03-29T00:36:52.404Z,12.70
2019-03-29T00:39:27.787Z,13.03
2019-03-29T00:41:56.643Z,12.30
2019-03-29T00:44:26.241Z,12.80
2019-03-29T00:47:03.354Z,11.85
2019-03-29T00:49:33.090Z,12.68
2019-03-29T00:52:09.088Z,11.78
2019-03-29T00:54:37.953Z,12.43
2019-03-29T00:57:06.808Z,13.05
2019-03-29T00:59:41.898Z,13.05
2019-03-29T01:02:10.743Z,11.83
2019-03-29T01:04:46.597Z,13.20
2019-03-29T01:07:15.442Z,12.30
2019-03-29T01:09:44.287Z,13.10
2019-03-29T01:12:19.440Z,12.82
2019-03-29T01:14:48.310Z,12.37
2019-03-29T01:17:30.835Z,13.53
2019-03-29T01:19:59.686Z,12.40
2019-03-29T01:22:28.546Z,12.30
2019-03-29T01:25:03.587Z,12.95
2019-03-29T01:27:32.462Z,12.40
2019-03-29T01:30:07.516Z,12.47
2019-03-29T01:32:36.399Z,12.15
2019-03-29T01:35:20.172Z,12.85
2019-03-29T01:37:55.545Z,11.53
2019-03-29T01:40:31.175Z,12.45
2019-03-29T01:43:00.000Z,12.65
2019-03-29T01:45:28.911Z,13.28
2019-03-29T01:48:04.647Z,13.80
2019-03-29T01:50:34.944Z,13.00
2019-03-29T01:53:28.530Z,13.25
2019-03-29T01:55:57.315Z,13.98
2019-03-29T01:58:26.241Z,13.78
2019-03-29T02:01:03.037Z,14.73
2019-03-29T02:03:31.971Z,13.13
2019-03-29T02:06:07.837Z,14.90
2019-03-29T02:08:37.807Z,13.72
2019-03-29T02:11:07.154Z,14.78
2019-03-29T02:13:42.927Z,13.38
2019-03-29T02:16:11.763Z,15.25
2019-03-29T02:18:55.366Z,14.38
2019-03-29T02:21:25.416Z,14.28
2019-03-29T02:23:54.278Z,14.07
2019-03-29T02:26:30.166Z,12.73
2019-03-29T02:28:58.976Z,13.75
2019-03-29T02:31:34.046Z,12.15
2019-03-29T02:34:02.886Z,13.32
2019-03-29T02:36:45.295Z,12.25
2019-03-29T02:39:20.579Z,13.53
2019-03-29T02:41:49.443Z,13.18
2019-03-29T02:44:25.099Z,12.78
2019-03-29T02:46:54.235Z,13.75
2019-03-29T02:49:29.648Z,12.40
2019-03-29T02:51:58.497Z,13.58
2019-03-29T02:54:27.471Z,12.03
2019-03-29T02:57:03.590Z,12.98
2019-03-29T02:59:32.448Z,12.95
2019-03-29T03:02:07.891Z,12.65
2019-03-29T03:04:36.674Z,12.60
2019-03-29T03:07:05.509Z,12.58
2019-03-29T03:09:41.413Z,12.10
2019-03-29T03:12:10.296Z,11.48
2019-03-29T03:14:45.953Z,13.70
2019-03-29T03:17:14.814Z,12.43
2019-03-29T03:19:57.485Z,12.98
2019-03-29T03:22:26.313Z,13.80
2019-03-29T03:24:55.139Z,13.70
2019-03-29T03:27:31.061Z,13.72
2019-03-29T03:29:59.935Z,13.28
2019-03-29T03:32:35.798Z,12.82
2019-03-29T03:35:07.064Z,14.40
2019-03-29T03:37:49.474Z,13.18
2019-03-29T03:40:24.817Z,13.62
2019-03-29T03:43:01.314Z,14.35
2019-03-29T03:45:30.234Z,14.05
2019-03-29T03:47:59.084Z,13.60
2019-03-29T03:50:40.939Z,14.58
2019-03-29T03:53:10.915Z,13.95
2019-03-29T03:55:47.292Z,15.10
2019-03-29T03:58:17.821Z,13.30
2019-03-29T04:01:01.626Z,14.63
2019-03-29T04:03:30.574Z,15.50
2019-03-29T04:05:59.425Z,14.10
2019-03-29T04:08:34.589Z,13.43
2019-03-29T04:11:03.842Z,12.98
2019-03-29T04:13:39.686Z,15.23
2019-03-29T04:16:08.556Z,14.65
2019-03-29T04:18:37.418Z,14.33
2019-03-29T04:21:19.802Z,13.60
2019-03-29T04:23:48.564Z,14.23
2019-03-29T04:26:24.160Z,14.40
2019-03-29T04:29:04.394Z,14.73
2019-03-29T04:31:23.576Z,14.95
2019-03-29T04:33:59.277Z,14.55
2019-03-29T04:36:28.145Z,14.35
2019-03-29T04:39:12.825Z,14.83
2019-03-29T04:41:48.676Z,15.90
2019-03-29T04:44:24.306Z,14.35
2019-03-29T04:46:53.167Z,15.60
2019-03-29T04:49:26.028Z,14.03
2019-03-29T04:52:13.485Z,14.98
2019-03-29T04:54:51.417Z,16.40
2019-03-29T04:57:26.913Z,14.85
2019-03-29T04:59:55.752Z,15.63
2019-03-29T05:02:24.617Z,15.05
2019-03-29T05:05:00.443Z,15.43
2019-03-29T05:07:48.016Z,15.18
2019-03-29T05:10:35.385Z,15.13
2019-03-29T05:13:04.056Z,15.43
2019-03-29T05:15:32.914Z,15.75
2019-03-29T05:18:08.224Z,15.80
2019-03-29T05:20:37.082Z,15.50
2019-03-29T05:23:18.871Z,15.98
2019-03-29T05:25:47.704Z,15.18
2019-03-29T05:28:22.703Z,15.00
2019-03-29T05:30:51.551Z,15.23
2019-03-29T05:33:27.313Z,15.55
2019-03-29T05:38:52.851Z,16.87
2019-03-29T05:41:21.672Z,15.13
2019-03-29T05:43:50.516Z,14.80
2019-03-29T05:46:26.000Z,14.80
2019-03-29T05:48:54.857Z,15.85
2019-03-29T05:51:30.809Z,15.88
2019-03-29T05:53:59.657Z,16.70
2019-03-29T05:56:28.489Z,16.42
2019-03-29T05:59:04.052Z,17.20
2019-03-29T06:01:32.948Z,16.87
2019-03-29T06:04:08.322Z,15.63
2019-03-29T06:06:37.174Z,15.15
2019-03-29T06:09:07.014Z,15.63
2019-03-29T06:11:42.506Z,17.57
2019-03-29T06:14:11.341Z,16.00
2019-03-29T06:16:46.764Z,16.62
2019-03-29T06:19:15.286Z,16.35
2019-03-29T06:21:43.779Z,17.75
2019-03-29T06:24:26.155Z,16.73
2019-03-29T06:26:54.668Z,17.73
2019-03-29T06:29:30.261Z,17.05
2019-03-29T06:31:58.770Z,16.25
2019-03-29T06:34:27.278Z,16.45
2019-03-29T06:37:03.680Z,16.00
2019-03-29T06:39:38.753Z,17.07
2019-03-29T06:42:14.361Z,16.80
2019-03-29T06:44:44.359Z,17.82
2019-03-29T06:47:13.085Z,18.30
2019-03-29T06:49:48.439Z,18.45
2019-03-29T06:52:16.949Z,17.20
2019-03-29T06:54:52.113Z,18.40
2019-03-29T06:57:20.688Z,18.30
2019-03-29T06:59:49.251Z,18.98
2019-03-29T07:02:24.056Z,18.57
2019-03-29T07:04:52.571Z,16.95
2019-03-29T07:07:27.617Z,18.73
2019-03-29T07:09:56.145Z,19.07
2019-03-29T07:12:24.614Z,18.40
2019-03-29T07:14:59.467Z,18.48
2019-03-29T07:17:27.945Z,18.73
2019-03-29T07:20:03.004Z,18.80
2019-03-29T07:22:34.514Z,18.80
2019-03-29T07:25:01.664Z,19.92
2019-03-29T07:27:45.765Z,20.12
2019-03-29T07:30:13.012Z,19.75
2019-03-29T07:32:48.329Z,20.23
2019-03-29T07:35:16.853Z,19.07
2019-03-29T07:37:58.332Z,19.85
2019-03-29T07:40:32.901Z,18.50
2019-03-29T07:43:01.382Z,16.35
2019-03-29T07:45:36.069Z,18.07
2019-03-29T07:48:04.677Z,18.17
2019-03-29T07:50:39.450Z,19.55
2019-03-29T07:53:07.937Z,18.65
2019-03-29T07:55:37.360Z,19.23
2019-03-29T07:58:13.188Z,20.97
2019-03-29T08:00:42.388Z,18.95
2019-03-29T08:03:21.030Z,16.80
2019-03-29T08:05:48.010Z,20.85
2019-03-29T08:08:23.798Z,22.48
2019-03-29T08:10:54.071Z,21.82
2019-03-29T08:13:23.069Z,19.12
2019-03-29T08:15:58.100Z,19.52
2019-03-29T08:18:26.582Z,18.90
2019-03-29T08:20:55.056Z,19.42
2019-03-29T08:23:36.632Z,19.25
2019-03-29T08:26:05.126Z,18.10
2019-03-29T08:28:40.837Z,19.73
2019-03-29T08:31:09.349Z,19.67
2019-03-29T08:33:37.782Z,19.92
2019-03-29T08:36:12.412Z,17.73
2019-03-29T08:38:47.659Z,18.15
2019-03-29T08:41:30.296Z,17.25
2019-03-29T08:43:58.813Z,18.05
2019-03-29T08:46:27.284Z,18.35
2019-03-29T08:49:02.608Z,19.07
2019-03-29T08:51:31.117Z,17.45
2019-03-29T08:54:06.222Z,18.07
2019-03-29T08:56:34.634Z,17.55
2019-03-29T08:59:03.117Z,17.42
2019-03-29T09:01:38.336Z,17.62
2019-03-29T09:04:06.831Z,17.17
2019-03-29T09:06:52.695Z,17.90
2019-03-29T09:09:12.236Z,16.55
2019-03-29T09:11:41.035Z,18.98
2019-03-29T09:14:16.165Z,19.67
2019-03-29T09:16:44.720Z,18.85
2019-03-29T09:19:19.593Z,19.20
2019-03-29T09:21:48.097Z,18.20
2019-03-29T09:24:22.359Z,19.40
2019-03-29T09:26:53.346Z,18.25
2019-03-29T09:29:21.867Z,18.77
2019-03-29T09:31:57.130Z,19.70
2019-03-29T09:34:28.686Z,19.37
2019-03-29T09:36:55.728Z,19.92
2019-03-29T09:39:31.240Z,19.80
2019-03-29T09:42:09.437Z,18.15
2019-03-29T09:44:50.743Z,20.92
2019-03-29T09:47:19.147Z,20.65
2019-03-29T09:49:47.660Z,18.07
2019-03-29T09:52:23.462Z,18.27
2019-03-29T09:54:54.018Z,18.80
2019-03-29T09:57:37.243Z,19.30
2019-03-29T09:59:58.905Z,18.98
2019-03-29T10:02:27.419Z,20.15
2019-03-29T10:05:02.886Z,19.80
2019-03-29T10:07:31.297Z,20.23
2019-03-29T10:10:05.929Z,19.40
2019-03-29T10:12:43.504Z,19.50
2019-03-29T10:15:05.653Z,20.52
2019-03-29T10:17:41.470Z,20.57
2019-03-29T10:20:10.132Z,20.08
2019-03-29T10:22:45.374Z,19.98
2019-03-29T10:25:19.623Z,20.35
2019-03-29T10:27:57.152Z,19.07
2019-03-29T10:30:35.965Z,18.50
2019-03-29T10:33:10.792Z,19.37
2019-03-29T10:35:50.836Z,20.40
2019-03-29T10:38:18.469Z,20.08
2019-03-29T10:40:53.712Z,18.50
2019-03-29T10:43:35.533Z,15.78
2019-03-29T10:46:04.057Z,17.90
2019-03-29T10:48:32.564Z,18.52
2019-03-29T10:51:08.542Z,17.67
2019-03-29T10:53:37.351Z,16.57
2019-03-29T10:56:12.325Z,18.70
2019-03-29T10:58:40.789Z,15.18
2019-03-29T11:01:09.269Z,14.95
2019-03-29T11:03:45.153Z,15.58
2019-03-29T11:06:13.665Z,15.10
2019-03-29T11:08:49.322Z,13.95
2019-03-29T11:11:17.828Z,15.03
2019-03-29T11:13:52.326Z,14.68
2019-03-29T11:16:27.586Z,13.08
2019-03-29T11:18:55.992Z,12.20
2019-03-29T11:21:31.592Z,10.75
2019-03-29T11:24:00.157Z,11.28
2019-03-29T11:26:28.565Z,10.85
2019-03-29T11:29:04.606Z,10.40
2019-03-29T11:31:33.079Z,10.15
2019-03-29T11:34:07.739Z,10.60
2019-03-29T11:36:36.184Z,10.23
2019-03-29T11:39:06.091Z,10.20
2019-03-29T11:41:41.497Z,11.10
2019-03-29T11:44:09.998Z,11.63
2019-03-29T11:46:45.584Z,9.50
2019-03-29T11:49:14.090Z,10.13
2019-03-29T11:51:42.521Z,9.00
2019-03-29T11:54:17.291Z,10.40
2019-03-29T11:56:47.661Z,7.97
2019-03-29T11:59:22.678Z,9.20
2019-03-29T12:01:51.243Z,8.78
2019-03-29T12:04:19.765Z,8.65
2019-03-29T12:06:54.536Z,8.73
2019-03-29T12:09:23.041Z,8.70
2019-03-29T12:11:57.829Z,10.53
2019-03-29T12:14:26.308Z,9.38
2019-03-29T12:17:01.571Z,8.48
2019-03-29T12:19:36.793Z,9.80
2019-03-29T12:22:05.296Z,9.00
2019-03-29T12:24:40.191Z,8.53
2019-03-29T12:27:08.645Z,11.40
2019-03-29T12:29:37.153Z,8.20
2019-03-29T12:32:12.420Z,8.20
2019-03-29T12:34:40.838Z,8.35
2019-03-29T12:37:15.730Z,7.33
2019-03-29T12:39:44.142Z,7.37
2019-03-29T12:42:26.214Z,6.62
2019-03-29T12:45:00.846Z,7.37
2019-03-29T12:47:36.341Z,6.80
2019-03-29T12:50:06.330Z,6.42
2019-03-29T12:52:34.791Z,6.80
2019-03-29T12:55:10.395Z,7.55
2019-03-29T12:57:39.508Z,7.65
2019-03-29T13:00:15.173Z,7.15
2019-03-29T13:02:43.760Z,6.87
2019-03-29T13:05:12.361Z,7.37
2019-03-29T13:07:47.472Z,6.53
2019-03-29T13:10:19.132Z,6.17
2019-03-29T13:12:53.985Z,6.28
2019-03-29T13:15:22.497Z,5.62
2019-03-29T13:17:51.022Z,6.50
2019-03-29T13:20:26.564Z,6.12
2019-03-29T13:22:55.069Z,5.83
2019-03-29T13:25:30.171Z,6.20
2019-03-29T13:27:59.524Z,5.95
2019-03-29T13:30:28.233Z,5.87
2019-03-29T13:33:03.722Z,6.30
2019-03-29T13:35:32.273Z,5.25
2019-03-29T13:38:07.160Z,5.33
2019-03-29T13:40:35.635Z,4.78
2019-03-29T13:43:10.683Z,4.85
2019-03-29T13:45:53.358Z,5.42
2019-03-29T13:48:21.867Z,5.08
2019-03-29T13:50:59.362Z,6.40
2019-03-29T13:53:27.041Z,5.42
2019-03-29T13:55:55.577Z,6.12
2019-03-29T13:58:30.836Z,6.08
2019-03-29T14:00:59.314Z,6.25
2019-03-29T14:03:34.889Z,6.72
2019-03-29T14:06:03.423Z,6.97
2019-03-29T14:08:31.923Z,7.58
2019-03-29T14:11:07.593Z,7.90
2019-03-29T14:13:36.401Z,6.60
2019-03-29T14:16:12.744Z,7.58
2019-03-29T14:18:41.156Z,7.33
2019-03-29T14:21:09.644Z,6.90
2019-03-29T14:23:45.316Z,7.20
2019-03-29T14:26:16.134Z,7.67
2019-03-29T14:28:50.252Z,8.33
2019-03-29T14:31:18.736Z,7.90
2019-03-29T14:33:47.265Z,8.28
2019-03-29T14:36:22.082Z,8.55
2019-03-29T14:38:50.535Z,8.40
2019-03-29T14:41:25.604Z,7.80
2019-03-29T14:44:00.777Z,7.08
2019-03-29T14:46:41.846Z,7.85
2019-03-29T14:49:10.333Z,7.85
2019-03-29T14:51:38.811Z,8.48
2019-03-29T14:54:13.492Z,8.38
2019-03-29T14:56:42.146Z,8.38
2019-03-29T14:59:17.525Z,7.95
2019-03-29T15:01:46.001Z,9.00
2019-03-29T15:04:14.696Z,9.48
2019-03-29T15:06:49.678Z,9.40
2019-03-29T15:09:18.252Z,9.48
2019-03-29T15:11:53.795Z,9.65
2019-03-29T15:14:23.241Z,9.93
2019-03-29T15:16:51.790Z,9.70
2019-03-29T15:19:27.135Z,8.95
2019-03-29T15:22:01.742Z,11.57
2019-03-29T15:24:36.416Z,11.70
2019-03-29T15:27:04.950Z,13.35
2019-03-29T15:29:40.446Z,12.55
2019-03-29T15:32:08.925Z,13.13
2019-03-29T15:34:37.376Z,12.65
2019-03-29T15:37:12.736Z,13.93
2019-03-29T15:39:41.257Z,13.72
2019-03-29T15:42:16.501Z,13.72
2019-03-29T15:44:51.817Z,14.05
2019-03-29T15:47:20.293Z,13.18
2019-03-29T15:49:56.628Z,14.50
2019-03-29T15:52:25.198Z,13.68
2019-03-29T15:55:00.421Z,13.70
2019-03-29T15:57:28.930Z,13.58
2019-03-29T15:59:57.409Z,15.55
2019-03-29T16:02:32.176Z,16.55
2019-03-29T16:05:00.693Z,17.17
2019-03-29T16:07:40.326Z,19.17
2019-03-29T16:10:10.200Z,18.40
2019-03-29T16:12:38.920Z,18.67
2019-03-29T16:15:14.014Z,22.58
2019-03-29T16:17:42.625Z,22.82
2019-03-29T16:20:18.838Z,22.67
2019-03-29T16:22:48.189Z,21.82
2019-03-29T16:25:30.025Z,21.42
2019-03-29T16:27:58.539Z,20.82
2019-03-29T16:30:27.079Z,20.15
2019-03-29T16:33:01.863Z,21.23
2019-03-29T16:35:33.138Z,20.82
2019-03-29T16:38:11.010Z,20.92
2019-03-29T16:40:40.496Z,19.98
2019-03-29T16:43:16.288Z,19.73
2019-03-29T16:45:51.679Z,21.35
2019-03-29T16:48:33.564Z,22.17
2019-03-29T16:51:02.081Z,21.40
2019-03-29T16:53:30.588Z,22.20
2019-03-29T16:56:05.416Z,22.32
2019-03-29T16:58:33.910Z,22.35
2019-03-29T17:01:09.289Z,20.45
2019-03-29T17:03:37.832Z,22.52
2019-03-29T17:06:06.344Z,21.17
2019-03-29T17:08:42.410Z,23.02
2019-03-29T17:11:10.896Z,24.72
2019-03-29T17:13:45.757Z,24.72
2019-03-29T17:16:14.227Z,25.27
2019-03-29T17:18:45.890Z,23.47
2019-03-29T17:21:20.415Z,24.60
2019-03-29T17:23:56.652Z,25.23
2019-03-29T17:26:39.389Z,25.72
2019-03-29T17:29:10.511Z,26.45
2019-03-29T17:31:39.046Z,25.92
2019-03-29T17:34:14.261Z,24.30
2019-03-29T17:36:42.733Z,27.65
2019-03-29T17:39:17.499Z,25.90
2019-03-29T17:41:45.935Z,26.60
2019-03-29T17:44:14.378Z,27.00
2019-03-29T17:46:48.946Z,28.95
2019-03-29T17:49:24.388Z,28.90
2019-03-29T17:52:00.212Z,28.42
2019-03-29T17:54:29.004Z,29.48
2019-03-29T17:56:57.798Z,29.32
2019-03-29T17:59:33.534Z,31.48
2019-03-29T18:02:09.517Z,29.50
2019-03-29T18:04:44.868Z,28.30
2019-03-29T18:07:14.981Z,26.80
2019-03-29T18:09:43.743Z,26.57
2019-03-29T18:12:19.143Z,26.45
2019-03-29T18:14:48.221Z,28.87
2019-03-29T18:17:23.907Z,27.67
2019-03-29T18:19:53.600Z,27.82
2019-03-29T18:22:42.624Z,28.32
2019-03-29T18:25:17.619Z,29.60
2019-03-29T18:27:52.953Z,29.92
2019-03-29T18:30:24.730Z,28.62
2019-03-29T18:32:53.557Z,30.92
2019-03-29T18:35:29.717Z,31.27
2019-03-29T18:37:58.685Z,31.48
2019-03-29T18:40:35.250Z,30.48
2019-03-29T18:43:04.083Z,31.23
2019-03-29T18:45:41.626Z,29.07
2019-03-29T18:48:22.279Z,26.57
2019-03-29T18:50:57.904Z,27.80
2019-03-29T18:53:26.792Z,27.32
2019-03-29T18:55:55.586Z,30.10
2019-03-29T18:58:31.029Z,27.93
2019-03-29T19:00:59.874Z,28.65
2019-03-29T19:03:35.367Z,27.75
2019-03-29T19:06:04.223Z,30.27
2019-03-29T19:08:32.917Z,30.92
2019-03-29T19:11:08.403Z,30.48
2019-03-29T19:13:37.269Z,29.40
2019-03-29T19:16:13.338Z,28.27
2019-03-29T19:18:42.191Z,30.17
2019-03-29T19:21:11.009Z,29.80
2019-03-29T19:23:47.159Z,32.33
2019-03-29T19:26:15.972Z,32.50
2019-03-29T19:28:53.205Z,31.82
2019-03-29T19:31:21.990Z,31.48
2019-03-29T19:33:50.814Z,32.28
2019-03-29T19:36:25.934Z,30.15
2019-03-29T19:38:54.893Z,31.77
2019-03-29T19:41:30.066Z,31.42
2019-03-29T19:43:58.859Z,31.73
2019-03-29T19:46:33.812Z,32.58
2019-03-29T19:49:15.992Z,34.60
2019-03-29T19:51:44.703Z,35.70
2019-03-29T19:54:19.961Z,35.55
2019-03-29T19:56:48.793Z,36.85
2019-03-29T19:59:17.541Z,36.35
2019-03-29T20:01:52.675Z,34.60
2019-03-29T20:04:21.535Z,33.83
2019-03-29T20:06:57.448Z,34.80
2019-03-29T20:09:26.267Z,33.75
2019-03-29T20:11:55.074Z,32.78
2019-03-29T20:14:31.166Z,33.23
2019-03-29T20:16:59.950Z,32.40
2019-03-29T20:19:35.654Z,33.92
2019-03-29T20:22:04.480Z,35.75
2019-03-29T20:24:33.317Z,33.55
2019-03-29T20:27:08.654Z,33.75
2019-03-29T20:29:37.488Z,35.10
2019-03-29T20:32:12.698Z,35.98
2019-03-29T20:34:41.603Z,36.20
2019-03-29T20:37:10.429Z,30.90
2019-03-29T20:39:45.626Z,35.45
2019-03-29T20:42:14.376Z,34.85
2019-03-29T20:44:49.709Z,36.17
2019-03-29T20:47:25.534Z,35.48
2019-03-29T20:50:09.756Z,33.53
2019-03-29T20:52:38.638Z,33.63
2019-03-29T20:55:10.733Z,34.67
2019-03-29T20:57:45.813Z,32.58
2019-03-29T21:00:16.987Z,30.82
2019-03-29T21:02:52.645Z,32.25
2019-03-29T21:05:21.436Z,30.10
2019-03-29T21:07:50.293Z,33.38
2019-03-29T21:10:26.339Z,33.92
2019-03-29T21:12:55.192Z,32.58
2019-03-29T21:15:30.779Z,33.10
2019-03-29T21:17:59.542Z,32.95
2019-03-29T21:20:28.315Z,33.13
2019-03-29T21:23:04.525Z,32.75
2019-03-29T21:25:33.292Z,29.05
2019-03-29T21:28:08.956Z,32.85
2019-03-29T21:30:37.782Z,29.85
2019-03-29T21:33:06.648Z,32.15
2019-03-29T21:35:42.670Z,32.20
2019-03-29T21:38:11.468Z,32.48
2019-03-29T21:40:46.668Z,33.85
2019-03-29T21:43:15.597Z,31.62
2019-03-29T21:45:44.715Z,31.95
2019-03-29T21:48:28.680Z,30.95
2019-03-29T21:50:57.795Z,30.70
2019-03-29T21:53:43.599Z,30.88
2019-03-29T21:56:10.895Z,31.93
2019-03-29T21:58:39.700Z,31.65
2019-03-29T22:01:15.582Z,31.27
2019-03-29T22:03:44.259Z,32.83
2019-03-29T22:06:19.767Z,31.00
2019-03-29T22:08:48.437Z,30.32
2019-03-29T22:11:17.298Z,27.62
2019-03-29T22:13:53.178Z,29.02
2019-03-29T22:16:22.012Z,27.90
2019-03-29T22:18:58.048Z,29.25
2019-03-29T22:21:26.854Z,29.00
2019-03-29T22:23:55.558Z,30.52
2019-03-29T22:26:30.925Z,26.45
2019-03-29T22:28:59.777Z,28.98
2019-03-29T22:31:35.625Z,29.70
2019-03-29T22:34:04.491Z,28.60
2019-03-29T22:36:46.701Z,28.47
2019-03-29T22:39:15.464Z,28.17
2019-03-29T22:41:44.255Z,27.52
2019-03-29T22:44:20.081Z,26.87
2019-03-29T22:46:48.886Z,27.58
2019-03-29T22:49:24.323Z,25.00
2019-03-29T22:51:59.596Z,27.02
2019-03-29T22:54:28.444Z,27.10
2019-03-29T22:57:04.543Z,29.52
2019-03-29T22:59:33.296Z,28.23
2019-03-29T23:02:08.609Z,26.48
2019-03-29T23:04:37.491Z,26.25
2019-03-29T23:07:06.343Z,24.52
2019-03-29T23:09:42.068Z,24.90
2019-03-29T23:12:10.854Z,26.02
2019-03-29T23:14:46.187Z,26.35
2019-03-29T23:17:15.025Z,24.63
2019-03-29T23:19:43.789Z,26.80
2019-03-29T23:22:19.474Z,26.87
2019-03-29T23:24:48.294Z,25.60
2019-03-29T23:27:23.618Z,24.98
2019-03-29T23:29:52.410Z,26.27
2019-03-29T23:32:27.909Z,25.27
2019-03-29T23:35:03.558Z,26.52
2019-03-29T23:37:32.347Z,25.50
2019-03-29T23:40:07.851Z,25.65
2019-03-29T23:42:36.704Z,26.40
2019-03-29T23:45:08.335Z,25.23
2019-03-29T23:47:43.447Z,23.38
2019-03-29T23:50:19.406Z,25.95
2019-03-29T23:53:01.486Z,24.77
2019-03-29T23:55:30.350Z,22.98
2019-03-29T23:57:59.160Z,26.30
